sensor_id;sensor_type;location;lat;lon;timestamp;pressure;altitude;pressure_sealevel;temperature;humidity
56038;BME280;41907;47.848;9.000;2023-04-04T00:01:54;96237.19;;;-0.53;80.21
56038;BME280;41907;47.848;9.000;2023-04-04T00:04:20;96243.94;;;-0.57;80.32
56038;BME280;41907;47.848;9.000;2023-04-04T00:06:45;96239.94;;;-0.60;80.79
56038;BME280;41907;47.848;9.000;2023-04-04T00:09:11;96238.75;;;-0.64;81.25
56038;BME280;41907;47.848;9.000;2023-04-04T00:11:37;96231.72;;;-0.63;80.21
56038;BME280;41907;47.848;9.000;2023-04-04T00:14:02;96224.06;;;-0.65;81.19
56038;BME280;41907;47.848;9.000;2023-04-04T00:16:29;96228.75;;;-0.67;80.84
56038;BME280;41907;47.848;9.000;2023-04-04T00:18:54;96236.63;;;-0.67;81.44
56038;BME280;41907;47.848;9.000;2023-04-04T00:21:19;96232.25;;;-0.73;81.90
56038;BME280;41907;47.848;9.000;2023-04-04T00:23:45;96223.25;;;-0.77;82.09
56038;BME280;41907;47.848;9.000;2023-04-04T00:26:10;96227.69;;;-0.78;82.15
56038;BME280;41907;47.848;9.000;2023-04-04T00:28:35;96220.28;;;-0.81;82.36
56038;BME280;41907;47.848;9.000;2023-04-04T00:31:01;96223.59;;;-0.85;82.46
56038;BME280;41907;47.848;9.000;2023-04-04T00:33:26;96223.22;;;-0.89;83.42
56038;BME280;41907;47.848;9.000;2023-04-04T00:35:51;96225.25;;;-0.91;83.06
56038;BME280;41907;47.848;9.000;2023-04-04T00:38:17;96225.47;;;-0.92;83.25
56038;BME280;41907;47.848;9.000;2023-04-04T00:40:46;96227.75;;;-0.96;82.89
56038;BME280;41907;47.848;9.000;2023-04-04T00:43:12;96227.19;;;-0.98;82.83
56038;BME280;41907;47.848;9.000;2023-04-04T00:45:38;96218.97;;;-1.01;84.08
56038;BME280;41907;47.848;9.000;2023-04-04T00:48:03;96224.66;;;-1.04;83.95
56038;BME280;41907;47.848;9.000;2023-04-04T00:50:28;96222.25;;;-1.06;84.13
56038;BME280;41907;47.848;9.000;2023-04-04T00:52:56;96214.25;;;-1.11;84.26
56038;BME280;41907;47.848;9.000;2023-04-04T00:55:21;96223.94;;;-1.12;84.86
56038;BME280;41907;47.848;9.000;2023-04-04T00:57:46;96228.81;;;-1.15;84.63
56038;BME280;41907;47.848;9.000;2023-04-04T01:00:12;96222.31;;;-1.13;85.45
56038;BME280;41907;47.848;9.000;2023-04-04T01:02:38;96229.84;;;-1.16;84.16
56038;BME280;41907;47.848;9.000;2023-04-04T01:05:03;96215.16;;;-1.17;84.37
56038;BME280;41907;47.848;9.000;2023-04-04T01:07:29;96227.66;;;-1.19;84.31
56038;BME280;41907;47.848;9.000;2023-04-04T01:09:55;96206.94;;;-1.21;84.94
56038;BME280;41907;47.848;9.000;2023-04-04T01:12:21;96213.66;;;-1.25;83.87
56038;BME280;41907;47.848;9.000;2023-04-04T01:14:47;96211.03;;;-1.25;84.13
56038;BME280;41907;47.848;9.000;2023-04-04T01:17:12;96214.44;;;-1.24;84.22
56038;BME280;41907;47.848;9.000;2023-04-04T01:19:42;96214.09;;;-1.28;84.49
56038;BME280;41907;47.848;9.000;2023-04-04T01:22:08;96209.53;;;-1.32;84.90
56038;BME280;41907;47.848;9.000;2023-04-04T01:24:35;96211.34;;;-1.33;84.46
56038;BME280;41907;47.848;9.000;2023-04-04T01:27:02;96199.72;;;-1.37;84.08
56038;BME280;41907;47.848;9.000;2023-04-04T01:29:27;96196.50;;;-1.39;84.80
56038;BME280;41907;47.848;9.000;2023-04-04T01:31:56;96201.97;;;-1.40;84.98
56038;BME280;41907;47.848;9.000;2023-04-04T01:34:37;96195.13;;;-1.41;84.12
56038;BME280;41907;47.848;9.000;2023-04-04T01:39:43;96196.38;;;-1.44;83.92
56038;BME280;41907;47.848;9.000;2023-04-04T01:42:12;96195.44;;;-1.50;84.84
56038;BME280;41907;47.848;9.000;2023-04-04T01:44:38;96199.53;;;-1.54;85.12
56038;BME280;41907;47.848;9.000;2023-04-04T01:47:06;96201.34;;;-1.54;85.21
56038;BME280;41907;47.848;9.000;2023-04-04T01:49:34;96192.31;;;-1.58;84.72
56038;BME280;41907;47.848;9.000;2023-04-04T01:52:00;96182.66;;;-1.58;84.54
56038;BME280;41907;47.848;9.000;2023-04-04T01:54:26;96190.72;;;-1.59;84.87
56038;BME280;41907;47.848;9.000;2023-04-04T01:56:52;96181.06;;;-1.59;84.06
56038;BME280;41907;47.848;9.000;2023-04-04T01:59:17;96192.53;;;-1.60;84.38
56038;BME280;41907;47.848;9.000;2023-04-04T02:01:42;96183.75;;;-1.65;84.55
56038;BME280;41907;47.848;9.000;2023-04-04T02:04:08;96182.75;;;-1.64;83.95
56038;BME280;41907;47.848;9.000;2023-04-04T02:06:36;96170.09;;;-1.67;84.75
56038;BME280;41907;47.848;9.000;2023-04-04T02:09:01;96168.97;;;-1.71;85.07
56038;BME280;41907;47.848;9.000;2023-04-04T02:11:26;96179.41;;;-1.71;84.10
56038;BME280;41907;47.848;9.000;2023-04-04T02:13:52;96174.19;;;-1.71;85.47
56038;BME280;41907;47.848;9.000;2023-04-04T02:16:17;96167.78;;;-1.75;85.47
56038;BME280;41907;47.848;9.000;2023-04-04T02:18:43;96166.41;;;-1.78;84.95
56038;BME280;41907;47.848;9.000;2023-04-04T02:21:08;96162.44;;;-1.80;85.50
56038;BME280;41907;47.848;9.000;2023-04-04T02:23:33;96151.38;;;-1.82;85.18
56038;BME280;41907;47.848;9.000;2023-04-04T02:25:59;96148.78;;;-1.82;85.91
56038;BME280;41907;47.848;9.000;2023-04-04T02:28:25;96147.97;;;-1.83;85.47
56038;BME280;41907;47.848;9.000;2023-04-04T02:30:52;96140.94;;;-1.82;85.30
56038;BME280;41907;47.848;9.000;2023-04-04T02:33:17;96136.94;;;-1.85;85.27
56038;BME280;41907;47.848;9.000;2023-04-04T02:35:42;96133.31;;;-1.84;85.30
56038;BME280;41907;47.848;9.000;2023-04-04T02:38:07;96139.97;;;-1.88;85.31
56038;BME280;41907;47.848;9.000;2023-04-04T02:40:33;96144.66;;;-1.90;85.95
56038;BME280;41907;47.848;9.000;2023-04-04T02:42:59;96136.44;;;-1.94;85.28
56038;BME280;41907;47.848;9.000;2023-04-04T02:45:25;96144.06;;;-1.92;85.02
56038;BME280;41907;47.848;9.000;2023-04-04T02:47:50;96144.28;;;-1.94;85.61
56038;BME280;41907;47.848;9.000;2023-04-04T02:50:16;96141.28;;;-1.97;85.86
56038;BME280;41907;47.848;9.000;2023-04-04T02:52:41;96143.09;;;-1.98;85.64
56038;BME280;41907;47.848;9.000;2023-04-04T02:55:07;96147.56;;;-1.98;85.96
56038;BME280;41907;47.848;9.000;2023-04-04T02:57:32;96142.53;;;-2.00;86.36
56038;BME280;41907;47.848;9.000;2023-04-04T02:59:58;96137.75;;;-2.03;86.40
56038;BME280;41907;47.848;9.000;2023-04-04T03:02:23;96142.97;;;-2.03;85.85
56038;BME280;41907;47.848;9.000;2023-04-04T03:04:49;96141.38;;;-2.04;86.47
56038;BME280;41907;47.848;9.000;2023-04-04T03:07:14;96148.06;;;-2.08;86.56
56038;BME280;41907;47.848;9.000;2023-04-04T03:09:39;96148.84;;;-2.07;86.66
56038;BME280;41907;47.848;9.000;2023-04-04T03:12:08;96145.66;;;-2.09;86.57
56038;BME280;41907;47.848;9.000;2023-04-04T03:14:34;96150.31;;;-2.11;86.84
56038;BME280;41907;47.848;9.000;2023-04-04T03:16:59;96148.72;;;-2.12;86.96
56038;BME280;41907;47.848;9.000;2023-04-04T03:19:24;96144.72;;;-2.15;87.92
56038;BME280;41907;47.848;9.000;2023-04-04T03:21:50;96137.88;;;-2.16;87.71
56038;BME280;41907;47.848;9.000;2023-04-04T03:24:15;96148.56;;;-2.17;87.66
56038;BME280;41907;47.848;9.000;2023-04-04T03:26:41;96154.22;;;-2.20;88.11
56038;BME280;41907;47.848;9.000;2023-04-04T03:29:06;96136.94;;;-2.21;89.00
56038;BME280;41907;47.848;9.000;2023-04-04T03:31:31;96153.03;;;-2.25;88.53
56038;BME280;41907;47.848;9.000;2023-04-04T03:33:56;96148.03;;;-2.26;88.60
56038;BME280;41907;47.848;9.000;2023-04-04T03:36:24;96143.06;;;-2.28;88.70
56038;BME280;41907;47.848;9.000;2023-04-04T03:38:49;96144.06;;;-2.29;89.44
56038;BME280;41907;47.848;9.000;2023-04-04T03:41:15;96145.06;;;-2.30;89.46
56038;BME280;41907;47.848;9.000;2023-04-04T03:43:40;96138.25;;;-2.31;89.12
56038;BME280;41907;47.848;9.000;2023-04-04T03:46:05;96146.28;;;-2.32;89.67
56038;BME280;41907;47.848;9.000;2023-04-04T03:48:31;96139.94;;;-2.36;89.89
56038;BME280;41907;47.848;9.000;2023-04-04T03:50:57;96144.78;;;-2.40;90.65
56038;BME280;41907;47.848;9.000;2023-04-04T03:53:23;96139.53;;;-2.40;90.65
56038;BME280;41907;47.848;9.000;2023-04-04T03:55:49;96144.78;;;-2.40;90.72
56038;BME280;41907;47.848;9.000;2023-04-04T03:58:14;96148.81;;;-2.44;90.86
56038;BME280;41907;47.848;9.000;2023-04-04T04:00:39;96137.81;;;-2.46;91.26
56038;BME280;41907;47.848;9.000;2023-04-04T04:03:05;96150.28;;;-2.48;91.68
56038;BME280;41907;47.848;9.000;2023-04-04T04:05:30;96137.22;;;-2.48;91.64
56038;BME280;41907;47.848;9.000;2023-04-04T04:07:55;96139.25;;;-2.50;91.73
56038;BME280;41907;47.848;9.000;2023-04-04T04:10:21;96157.53;;;-2.50;92.17
56038;BME280;41907;47.848;9.000;2023-04-04T04:12:46;96151.13;;;-2.54;92.74
56038;BME280;41907;47.848;9.000;2023-04-04T04:15:11;96156.34;;;-2.54;92.76
56038;BME280;41907;47.848;9.000;2023-04-04T04:17:39;96152.16;;;-2.55;92.88
56038;BME280;41907;47.848;9.000;2023-04-04T04:20:06;96157.78;;;-2.58;93.12
56038;BME280;41907;47.848;9.000;2023-04-04T04:22:32;96147.56;;;-2.59;93.17
56038;BME280;41907;47.848;9.000;2023-04-04T04:24:57;96151.19;;;-2.60;93.86
56038;BME280;41907;47.848;9.000;2023-04-04T04:27:22;96151.97;;;-2.60;93.79
56038;BME280;41907;47.848;9.000;2023-04-04T04:29:48;96151.19;;;-2.60;93.41
56038;BME280;41907;47.848;9.000;2023-04-04T04:32:16;96161.03;;;-2.63;94.09
56038;BME280;41907;47.848;9.000;2023-04-04T04:34:41;96154.44;;;-2.65;94.12
56038;BME280;41907;47.848;9.000;2023-04-04T04:37:07;96152.06;;;-2.67;94.95
56038;BME280;41907;47.848;9.000;2023-04-04T04:39:32;96150.44;;;-2.68;94.17
56038;BME280;41907;47.848;9.000;2023-04-04T04:41:57;96150.44;;;-2.68;95.20
56038;BME280;41907;47.848;9.000;2023-04-04T04:44:22;96152.25;;;-2.68;95.08
56038;BME280;41907;47.848;9.000;2023-04-04T04:46:48;96147.25;;;-2.70;95.00
56038;BME280;41907;47.848;9.000;2023-04-04T04:49:13;96153.47;;;-2.71;95.57
56038;BME280;41907;47.848;9.000;2023-04-04T04:51:38;96170.75;;;-2.70;95.24
56038;BME280;41907;47.848;9.000;2023-04-04T04:54:04;96172.19;;;-2.74;95.62
56038;BME280;41907;47.848;9.000;2023-04-04T04:56:29;96180.59;;;-2.72;95.70
56038;BME280;41907;47.848;9.000;2023-04-04T04:58:54;96173.78;;;-2.73;96.29
56038;BME280;41907;47.848;9.000;2023-04-04T05:01:20;96174.00;;;-2.74;96.08
56038;BME280;41907;47.848;9.000;2023-04-04T05:03:45;96176.63;;;-2.74;95.91
56038;BME280;41907;47.848;9.000;2023-04-04T05:06:11;96180.19;;;-2.69;95.65
56038;BME280;41907;47.848;9.000;2023-04-04T05:08:36;96179.59;;;-2.46;95.79
56038;BME280;41907;47.848;9.000;2023-04-04T05:11:01;96176.31;;;-1.80;92.11
56038;BME280;41907;47.848;9.000;2023-04-04T05:13:27;96170.66;;;-1.17;88.07
56038;BME280;41907;47.848;9.000;2023-04-04T05:15:52;96173.72;;;-0.79;85.80
56038;BME280;41907;47.848;9.000;2023-04-04T05:18:17;96179.38;;;-0.93;84.82
56038;BME280;41907;47.848;9.000;2023-04-04T05:20:42;96171.25;;;-0.50;84.64
56038;BME280;41907;47.848;9.000;2023-04-04T05:23:07;96170.66;;;-0.76;83.79
56038;BME280;41907;47.848;9.000;2023-04-04T05:25:33;96173.66;;;-1.02;85.07
56038;BME280;41907;47.848;9.000;2023-04-04T05:27:58;96178.19;;;-1.09;86.03
56038;BME280;41907;47.848;9.000;2023-04-04T05:30:23;96180.28;;;-1.29;87.59
56038;BME280;41907;47.848;9.000;2023-04-04T05:32:49;96180.09;;;-1.46;87.47
56038;BME280;41907;47.848;9.000;2023-04-04T05:35:15;96186.19;;;-1.34;88.12
56038;BME280;41907;47.848;9.000;2023-04-04T05:37:40;96180.34;;;-1.18;86.54
56038;BME280;41907;47.848;9.000;2023-04-04T05:40:06;96182.19;;;-0.42;84.09
56038;BME280;41907;47.848;9.000;2023-04-04T05:42:31;96177.69;;;0.29;79.77
56038;BME280;41907;47.848;9.000;2023-04-04T05:44:56;96173.22;;;1.60;73.30
56038;BME280;41907;47.848;9.000;2023-04-04T05:47:21;96171.97;;;2.66;68.61
56038;BME280;41907;47.848;9.000;2023-04-04T05:49:47;96171.41;;;2.86;65.21
56038;BME280;41907;47.848;9.000;2023-04-04T05:52:12;96179.97;;;2.98;64.71
56038;BME280;41907;47.848;9.000;2023-04-04T05:54:37;96174.50;;;4.05;59.50
56038;BME280;41907;47.848;9.000;2023-04-04T05:57:02;96177.00;;;5.05;56.76
56038;BME280;41907;47.848;9.000;2023-04-04T05:59:28;96172.13;;;4.61;56.11
56038;BME280;41907;47.848;9.000;2023-04-04T06:01:54;96178.66;;;5.51;54.01
56038;BME280;41907;47.848;9.000;2023-04-04T06:04:19;96183.69;;;5.78;51.52
56038;BME280;41907;47.848;9.000;2023-04-04T06:06:45;96183.19;;;5.91;51.04
56038;BME280;41907;47.848;9.000;2023-04-04T06:09:10;96190.03;;;5.37;52.61
56038;BME280;41907;47.848;9.000;2023-04-04T06:11:35;96191.84;;;7.02;48.07
56038;BME280;41907;47.848;9.000;2023-04-04T06:14:01;96189.31;;;7.65;46.13
56038;BME280;41907;47.848;9.000;2023-04-04T06:16:26;96191.59;;;6.98;46.67
56038;BME280;41907;47.848;9.000;2023-04-04T06:18:51;96190.22;;;7.50;45.89
56038;BME280;41907;47.848;9.000;2023-04-04T06:21:17;96197.53;;;7.29;45.58
56038;BME280;41907;47.848;9.000;2023-04-04T06:23:42;96196.94;;;7.42;45.70
56038;BME280;41907;47.848;9.000;2023-04-04T06:26:07;96193.84;;;6.71;48.26
56038;BME280;41907;47.848;9.000;2023-04-04T06:28:33;96185.44;;;7.13;46.73
56038;BME280;41907;47.848;9.000;2023-04-04T06:30:58;96187.44;;;6.87;46.34
56038;BME280;41907;47.848;9.000;2023-04-04T06:33:23;96194.63;;;7.65;45.29
56038;BME280;41907;47.848;9.000;2023-04-04T06:35:48;96197.13;;;8.14;44.05
56038;BME280;41907;47.848;9.000;2023-04-04T06:38:14;96197.47;;;9.26;41.25
56038;BME280;41907;47.848;9.000;2023-04-04T06:40:39;96196.44;;;9.04;40.65
56038;BME280;41907;47.848;9.000;2023-04-04T06:43:04;96198.44;;;8.16;42.63
56038;BME280;41907;47.848;9.000;2023-04-04T06:45:30;96206.69;;;8.15;43.73
56038;BME280;41907;47.848;9.000;2023-04-04T06:47:57;96204.22;;;9.56;40.87
56038;BME280;41907;47.848;9.000;2023-04-04T06:50:23;96205.88;;;7.85;43.56
56038;BME280;41907;47.848;9.000;2023-04-04T06:52:48;96209.47;;;7.71;43.62
56038;BME280;41907;47.848;9.000;2023-04-04T06:55:14;96207.47;;;8.20;41.82
56038;BME280;41907;47.848;9.000;2023-04-04T06:57:39;96218.03;;;8.26;42.58
56038;BME280;41907;47.848;9.000;2023-04-04T07:00:04;96200.44;;;9.62;39.93
56038;BME280;41907;47.848;9.000;2023-04-04T07:02:30;96212.03;;;11.18;37.30
56038;BME280;41907;47.848;9.000;2023-04-04T07:04:55;96210.88;;;11.47;35.52
56038;BME280;41907;47.848;9.000;2023-04-04T07:07:20;96218.25;;;11.28;36.80
56038;BME280;41907;47.848;9.000;2023-04-04T07:09:46;96214.53;;;11.87;34.96
56038;BME280;41907;47.848;9.000;2023-04-04T07:12:11;96219.91;;;12.18;34.52
56038;BME280;41907;47.848;9.000;2023-04-04T07:14:36;96229.31;;;12.38;33.51
56038;BME280;41907;47.848;9.000;2023-04-04T07:17:01;96231.03;;;11.89;35.25
56038;BME280;41907;47.848;9.000;2023-04-04T07:19:26;96223.84;;;12.43;33.26
56038;BME280;41907;47.848;9.000;2023-04-04T07:21:53;96227.22;;;12.26;34.02
56038;BME280;41907;47.848;9.000;2023-04-04T07:24:18;96216.19;;;13.89;31.58
56038;BME280;41907;47.848;9.000;2023-04-04T07:26:43;96227.41;;;15.10;30.54
56038;BME280;41907;47.848;9.000;2023-04-04T07:29:09;96232.22;;;15.34;28.59
56038;BME280;41907;47.848;9.000;2023-04-04T07:31:34;96236.13;;;12.75;31.14
56038;BME280;41907;47.848;9.000;2023-04-04T07:33:59;96226.94;;;11.69;33.52
56038;BME280;41907;47.848;9.000;2023-04-04T07:36:25;96227.81;;;12.85;32.39
56038;BME280;41907;47.848;9.000;2023-04-04T07:38:50;96234.44;;;13.27;31.17
56038;BME280;41907;47.848;9.000;2023-04-04T07:41:16;96221.09;;;12.25;31.69
56038;BME280;41907;47.848;9.000;2023-04-04T07:43:41;96220.94;;;12.92;31.82
56038;BME280;41907;47.848;9.000;2023-04-04T07:46:06;96227.81;;;12.01;31.92
56038;BME280;41907;47.848;9.000;2023-04-04T07:48:31;96224.44;;;11.86;32.33
56038;BME280;41907;47.848;9.000;2023-04-04T07:50:57;96221.47;;;11.74;33.22
56038;BME280;41907;47.848;9.000;2023-04-04T07:53:24;96216.13;;;11.74;32.79
56038;BME280;41907;47.848;9.000;2023-04-04T07:55:49;96226.88;;;13.29;30.80
56038;BME280;41907;47.848;9.000;2023-04-04T07:58:14;96216.03;;;13.43;29.78
56038;BME280;41907;47.848;9.000;2023-04-04T08:00:40;96222.81;;;14.43;28.96
56038;BME280;41907;47.848;9.000;2023-04-04T08:03:05;96225.13;;;14.53;29.33
56038;BME280;41907;47.848;9.000;2023-04-04T08:05:30;96230.81;;;13.31;30.23
56038;BME280;41907;47.848;9.000;2023-04-04T08:07:56;96219.28;;;13.14;30.35
56038;BME280;41907;47.848;9.000;2023-04-04T08:10:21;96221.66;;;14.91;28.97
56038;BME280;41907;47.848;9.000;2023-04-04T08:12:47;96220.69;;;16.17;27.17
56038;BME280;41907;47.848;9.000;2023-04-04T08:15:13;96223.56;;;15.49;27.47
56038;BME280;41907;47.848;9.000;2023-04-04T08:17:38;96221.25;;;15.39;26.78
56038;BME280;41907;47.848;9.000;2023-04-04T08:20:04;96225.19;;;15.42;26.94
56038;BME280;41907;47.848;9.000;2023-04-04T08:22:29;96221.97;;;15.27;26.65
56038;BME280;41907;47.848;9.000;2023-04-04T08:24:55;96216.69;;;13.65;28.41
56038;BME280;41907;47.848;9.000;2023-04-04T08:27:20;96220.63;;;13.85;28.60
56038;BME280;41907;47.848;9.000;2023-04-04T08:29:46;96212.72;;;14.23;27.95
56038;BME280;41907;47.848;9.000;2023-04-04T08:32:12;96210.34;;;13.35;28.63
56038;BME280;41907;47.848;9.000;2023-04-04T08:34:37;96211.94;;;13.71;29.12
56038;BME280;41907;47.848;9.000;2023-04-04T08:37:02;96219.84;;;13.76;28.37
56038;BME280;41907;47.848;9.000;2023-04-04T08:39:28;96223.69;;;12.79;28.98
56038;BME280;41907;47.848;9.000;2023-04-04T08:42:04;96219.81;;;13.50;28.47
56038;BME280;41907;47.848;9.000;2023-04-04T08:44:30;96228.44;;;12.82;29.03
56038;BME280;41907;47.848;9.000;2023-04-04T08:46:55;96219.19;;;13.88;28.46
56038;BME280;41907;47.848;9.000;2023-04-04T08:49:22;96210.03;;;15.16;26.88
56038;BME280;41907;47.848;9.000;2023-04-04T08:51:49;96228.91;;;13.23;27.29
56038;BME280;41907;47.848;9.000;2023-04-04T08:54:16;96223.88;;;12.82;28.51
56038;BME280;41907;47.848;9.000;2023-04-04T08:56:41;96233.25;;;13.02;28.20
56038;BME280;41907;47.848;9.000;2023-04-04T08:59:07;96237.28;;;12.82;28.81
56038;BME280;41907;47.848;9.000;2023-04-04T09:01:34;96227.81;;;12.45;28.33
56038;BME280;41907;47.848;9.000;2023-04-04T09:03:59;96230.53;;;12.93;29.25
56038;BME280;41907;47.848;9.000;2023-04-04T09:06:25;96224.56;;;13.53;28.54
56038;BME280;41907;47.848;9.000;2023-04-04T09:08:51;96220.28;;;14.12;27.24
56038;BME280;41907;47.848;9.000;2023-04-04T09:11:18;96225.53;;;11.85;28.86
56038;BME280;41907;47.848;9.000;2023-04-04T09:13:44;96224.16;;;12.41;28.26
56038;BME280;41907;47.848;9.000;2023-04-04T09:16:10;96237.44;;;12.86;27.40
56038;BME280;41907;47.848;9.000;2023-04-04T09:18:35;96230.69;;;12.26;27.93
56038;BME280;41907;47.848;9.000;2023-04-04T09:21:07;96229.00;;;13.10;27.11
56038;BME280;41907;47.848;9.000;2023-04-04T09:23:32;96232.03;;;12.77;28.09
56038;BME280;41907;47.848;9.000;2023-04-04T09:25:58;96229.44;;;13.03;27.70
56038;BME280;41907;47.848;9.000;2023-04-04T09:28:23;96218.00;;;14.58;27.00
56038;BME280;41907;47.848;9.000;2023-04-04T09:30:49;96228.19;;;13.83;28.15
56038;BME280;41907;47.848;9.000;2023-04-04T09:33:15;96221.53;;;14.41;27.05
56038;BME280;41907;47.848;9.000;2023-04-04T09:35:44;96225.81;;;13.90;28.21
56038;BME280;41907;47.848;9.000;2023-04-04T09:38:10;96225.59;;;13.18;27.78
56038;BME280;41907;47.848;9.000;2023-04-04T09:40:36;96232.47;;;13.10;27.31
56038;BME280;41907;47.848;9.000;2023-04-04T09:43:02;96226.91;;;12.89;28.94
56038;BME280;41907;47.848;9.000;2023-04-04T09:45:32;96229.72;;;12.93;29.19
56038;BME280;41907;47.848;9.000;2023-04-04T09:47:59;96217.44;;;12.83;28.86
56038;BME280;41907;47.848;9.000;2023-04-04T09:50:25;96218.66;;;11.93;29.90
56038;BME280;41907;47.848;9.000;2023-04-04T09:52:53;96217.69;;;11.53;31.05
56038;BME280;41907;47.848;9.000;2023-04-04T09:55:20;96225.81;;;12.59;30.28
56038;BME280;41907;47.848;9.000;2023-04-04T09:57:45;96222.03;;;12.29;30.05
56038;BME280;41907;47.848;9.000;2023-04-04T10:00:11;96204.94;;;10.73;30.81
56038;BME280;41907;47.848;9.000;2023-04-04T10:02:38;96216.50;;;10.68;32.01
56038;BME280;41907;47.848;9.000;2023-04-04T10:05:07;96214.44;;;10.65;30.91
56038;BME280;41907;47.848;9.000;2023-04-04T10:07:35;96219.53;;;9.83;32.60
56038;BME280;41907;47.848;9.000;2023-04-04T10:10:04;96225.66;;;10.35;32.68
56038;BME280;41907;47.848;9.000;2023-04-04T10:12:29;96219.53;;;9.08;34.46
56038;BME280;41907;47.848;9.000;2023-04-04T10:14:58;96214.88;;;10.07;33.58
56038;BME280;41907;47.848;9.000;2023-04-04T10:17:23;96230.69;;;10.36;33.55
56038;BME280;41907;47.848;9.000;2023-04-04T10:19:49;96220.44;;;9.41;33.73
56038;BME280;41907;47.848;9.000;2023-04-04T10:22:16;96227.19;;;9.71;32.94
56038;BME280;41907;47.848;9.000;2023-04-04T10:24:41;96213.50;;;9.78;32.82
56038;BME280;41907;47.848;9.000;2023-04-04T10:27:06;96234.09;;;9.53;33.83
56038;BME280;41907;47.848;9.000;2023-04-04T10:29:32;96225.91;;;9.07;33.48
56038;BME280;41907;47.848;9.000;2023-04-04T10:32:03;96222.91;;;8.71;34.65
56038;BME280;41907;47.848;9.000;2023-04-04T10:34:35;96227.97;;;8.91;33.85
56038;BME280;41907;47.848;9.000;2023-04-04T10:37:11;96227.75;;;8.06;35.11
56038;BME280;41907;47.848;9.000;2023-04-04T10:42:03;96228.63;;;7.97;36.01
56038;BME280;41907;47.848;9.000;2023-04-04T10:44:32;96233.59;;;8.08;35.20
56038;BME280;41907;47.848;9.000;2023-04-04T10:47:14;96220.06;;;8.05;34.93
56038;BME280;41907;47.848;9.000;2023-04-04T10:49:44;96229.94;;;7.99;36.50
56038;BME280;41907;47.848;9.000;2023-04-04T10:52:10;96223.31;;;8.02;35.98
56038;BME280;41907;47.848;9.000;2023-04-04T10:54:37;96220.53;;;7.83;35.50
56038;BME280;41907;47.848;9.000;2023-04-04T10:57:02;96215.97;;;7.89;36.86
56038;BME280;41907;47.848;9.000;2023-04-04T10:59:28;96220.16;;;7.95;37.61
56038;BME280;41907;47.848;9.000;2023-04-04T11:01:58;96216.41;;;8.01;37.07
56038;BME280;41907;47.848;9.000;2023-04-04T11:07:08;96208.09;;;8.07;36.02
56038;BME280;41907;47.848;9.000;2023-04-04T11:09:52;96218.16;;;7.76;36.58
56038;BME280;41907;47.848;9.000;2023-04-04T11:12:31;96217.81;;;7.54;37.75
56038;BME280;41907;47.848;9.000;2023-04-04T11:15:07;96207.19;;;7.88;37.07
56038;BME280;41907;47.848;9.000;2023-04-04T11:20:21;96208.19;;;7.63;35.55
56038;BME280;41907;47.848;9.000;2023-04-04T11:22:51;96209.63;;;7.45;35.71
56038;BME280;41907;47.848;9.000;2023-04-04T11:25:39;96201.38;;;7.52;36.48
56038;BME280;41907;47.848;9.000;2023-04-04T11:28:10;96192.84;;;7.55;36.61
56038;BME280;41907;47.848;9.000;2023-04-04T11:30:37;96198.09;;;7.26;38.06
56038;BME280;41907;47.848;9.000;2023-04-04T11:33:08;96194.06;;;7.68;37.43
56038;BME280;41907;47.848;9.000;2023-04-04T11:35:36;96206.25;;;7.35;36.83
56038;BME280;41907;47.848;9.000;2023-04-04T11:38:02;96197.00;;;7.32;36.59
56038;BME280;41907;47.848;9.000;2023-04-04T11:41:01;96204.78;;;7.58;36.63
56038;BME280;41907;47.848;9.000;2023-04-04T11:43:20;96197.78;;;7.28;37.58
56038;BME280;41907;47.848;9.000;2023-04-04T11:45:46;96200.03;;;7.55;37.98
56038;BME280;41907;47.848;9.000;2023-04-04T11:48:13;96197.66;;;7.53;37.49
56038;BME280;41907;47.848;9.000;2023-04-04T11:50:39;96197.94;;;7.46;38.90
56038;BME280;41907;47.848;9.000;2023-04-04T11:53:08;96192.31;;;7.14;39.24
56038;BME280;41907;47.848;9.000;2023-04-04T11:55:37;96198.44;;;7.54;38.66
56038;BME280;41907;47.848;9.000;2023-04-04T11:58:09;96192.63;;;7.46;40.28
56038;BME280;41907;47.848;9.000;2023-04-04T12:00:35;96197.16;;;7.46;40.36
56038;BME280;41907;47.848;9.000;2023-04-04T12:03:05;96188.09;;;7.86;40.74
56038;BME280;41907;47.848;9.000;2023-04-04T12:05:31;96191.69;;;8.00;39.53
56038;BME280;41907;47.848;9.000;2023-04-04T12:07:57;96188.44;;;8.08;37.94
56038;BME280;41907;47.848;9.000;2023-04-04T12:10:24;96194.56;;;8.04;39.46
56038;BME280;41907;47.848;9.000;2023-04-04T12:12:49;96190.22;;;7.84;39.32
56038;BME280;41907;47.848;9.000;2023-04-04T12:15:18;96193.72;;;7.79;39.74
56038;BME280;41907;47.848;9.000;2023-04-04T12:17:44;96187.44;;;7.70;39.85
56038;BME280;41907;47.848;9.000;2023-04-04T12:20:09;96193.22;;;7.43;40.66
56038;BME280;41907;47.848;9.000;2023-04-04T12:22:35;96180.88;;;7.58;39.66
56038;BME280;41907;47.848;9.000;2023-04-04T12:25:00;96181.88;;;7.33;40.02
56038;BME280;41907;47.848;9.000;2023-04-04T12:27:26;96182.59;;;7.38;41.43
56038;BME280;41907;47.848;9.000;2023-04-04T12:29:53;96176.56;;;7.33;39.97
56038;BME280;41907;47.848;9.000;2023-04-04T12:32:19;96179.88;;;7.09;40.50
56038;BME280;41907;47.848;9.000;2023-04-04T12:34:44;96187.25;;;7.18;41.01
56038;BME280;41907;47.848;9.000;2023-04-04T12:37:11;96190.03;;;7.36;40.45
56038;BME280;41907;47.848;9.000;2023-04-04T12:39:39;96187.03;;;7.53;40.18
56038;BME280;41907;47.848;9.000;2023-04-04T12:42:04;96170.19;;;7.68;41.85
56038;BME280;41907;47.848;9.000;2023-04-04T12:46:56;96180.41;;;7.51;40.81
56038;BME280;41907;47.848;9.000;2023-04-04T12:49:22;96170.59;;;7.46;41.33
56038;BME280;41907;47.848;9.000;2023-04-04T12:51:48;96172.72;;;7.49;40.75
56038;BME280;41907;47.848;9.000;2023-04-04T12:54:34;96178.50;;;7.90;39.91
56038;BME280;41907;47.848;9.000;2023-04-04T12:57:00;96176.41;;;7.14;39.65
56038;BME280;41907;47.848;9.000;2023-04-04T12:59:28;96179.44;;;7.36;39.97
56038;BME280;41907;47.848;9.000;2023-04-04T13:01:53;96177.78;;;7.45;39.47
56038;BME280;41907;47.848;9.000;2023-04-04T13:04:19;96170.38;;;7.42;39.38
56038;BME280;41907;47.848;9.000;2023-04-04T13:06:44;96168.19;;;7.55;41.20
56038;BME280;41907;47.848;9.000;2023-04-04T13:09:18;96172.91;;;7.58;41.04
56038;BME280;41907;47.848;9.000;2023-04-04T13:14:23;96181.59;;;7.29;40.14